createdAt,value
2017-10-09T00:00:04.302Z,0
2017-10-09T00:01:13.680Z,0
2017-10-09T00:02:24.018Z,0
2017-10-09T00:03:34.090Z,0
2017-10-09T00:04:44.110Z,0
2017-10-09T00:05:54.446Z,0
2017-10-09T00:07:04.777Z,0
2017-10-09T00:08:15.123Z,0
2017-10-09T00:09:25.471Z,0
2017-10-09T00:10:35.817Z,0
2017-10-09T00:11:46.170Z,0
2017-10-09T00:12:56.514Z,0
2017-10-09T00:14:06.848Z,0
2017-10-09T00:15:17.224Z,0
2017-10-09T00:16:27.256Z,0
2017-10-09T00:17:37.604Z,0
2017-10-09T00:18:47.926Z,0
2017-10-09T00:19:58.263Z,0
2017-10-09T00:21:08.598Z,0
2017-10-09T00:22:18.930Z,0
2017-10-09T00:23:29.273Z,0
2017-10-09T00:24:39.601Z,0
2017-10-09T00:25:49.302Z,0
2017-10-09T00:26:59.691Z,0
2017-10-09T00:28:09.705Z,0
2017-10-09T00:29:20.026Z,0
2017-10-09T00:30:30.043Z,0
2017-10-09T00:31:40.397Z,0
2017-10-09T00:32:50.770Z,0
2017-10-09T00:34:01.102Z,0
2017-10-09T00:35:11.117Z,0
2017-10-09T00:36:21.146Z,0
2017-10-09T00:37:31.478Z,0
2017-10-09T00:38:41.800Z,0
2017-10-09T00:39:52.178Z,0
2017-10-09T00:41:02.499Z,0
2017-10-09T00:42:12.846Z,0
2017-10-09T00:43:23.187Z,0
2017-10-09T00:44:33.623Z,0
2017-10-09T00:45:43.973Z,0
2017-10-09T00:46:54.012Z,0
2017-10-09T00:48:04.034Z,0
2017-10-09T00:49:13.730Z,0
2017-10-09T00:50:24.123Z,0
2017-10-09T00:51:34.464Z,0
2017-10-09T00:52:44.470Z,0
2017-10-09T00:53:54.179Z,0
2017-10-09T00:55:04.500Z,0
2017-10-09T00:56:14.513Z,0
2017-10-09T00:57:24.518Z,0
2017-10-09T00:58:34.849Z,0
2017-10-09T00:59:44.858Z,0
2017-10-09T01:00:54.888Z,0
2017-10-09T01:02:05.229Z,0
2017-10-09T01:03:15.552Z,0
2017-10-09T01:04:25.898Z,0
2017-10-09T01:05:35.925Z,0
2017-10-09T01:06:46.262Z,0
2017-10-09T01:07:56.635Z,0
2017-10-09T01:09:06.985Z,0
2017-10-09T01:10:17.313Z,0
2017-10-09T01:11:27.657Z,0
2017-10-09T01:12:37.987Z,0
2017-10-09T01:13:48.013Z,0
2017-10-09T01:14:58.334Z,0
2017-10-09T01:16:08.352Z,0
2017-10-09T01:17:18.688Z,0
2017-10-09T01:18:29.032Z,0
2017-10-09T01:19:39.371Z,0
2017-10-09T01:20:49.714Z,0
2017-10-09T01:21:59.411Z,0
2017-10-09T01:23:09.117Z,0
2017-10-09T01:24:19.133Z,0
2017-10-09T01:25:29.146Z,0
2017-10-09T01:26:39.483Z,0
2017-10-09T01:27:49.837Z,0
2017-10-09T01:28:59.865Z,0
2017-10-09T01:30:09.883Z,0
2017-10-09T01:31:20.261Z,0
2017-10-09T01:32:30.601Z,0
2017-10-09T01:33:40.604Z,0
2017-10-09T01:34:50.940Z,0
2017-10-09T01:36:01.272Z,0
2017-10-09T01:37:11.340Z,0
2017-10-09T01:38:21.669Z,0
2017-10-09T01:39:31.686Z,0
2017-10-09T01:40:41.700Z,0
2017-10-09T01:41:52.029Z,0
2017-10-09T01:43:02.383Z,0
2017-10-09T01:44:12.086Z,0
2017-10-09T01:45:22.103Z,0
2017-10-09T01:46:32.129Z,0
2017-10-09T01:47:42.143Z,0
2017-10-09T01:48:52.490Z,0
2017-10-09T01:50:02.547Z,0
2017-10-09T01:51:12.564Z,0
2017-10-09T01:52:22.572Z,0
2017-10-09T01:53:32.906Z,0
2017-10-09T01:54:43.225Z,0
2017-10-09T01:55:53.556Z,0
2017-10-09T01:57:03.895Z,0
2017-10-09T01:58:14.231Z,0
2017-10-09T01:59:24.571Z,0
2017-10-09T02:00:34.593Z,0
2017-10-09T02:01:44.921Z,0
2017-10-09T02:02:55.242Z,0
2017-10-09T02:04:05.571Z,0
2017-10-09T02:05:15.577Z,0
2017-10-09T02:06:25.915Z,0
2017-10-09T02:07:35.925Z,0
2017-10-09T02:08:45.938Z,0
2017-10-09T02:09:56.271Z,0
2017-10-09T02:11:06.290Z,0
2017-10-09T02:12:16.682Z,0
2017-10-09T02:13:26.697Z,0
2017-10-09T02:14:37.030Z,0
2017-10-09T02:15:47.046Z,0
2017-10-09T02:16:57.062Z,0
2017-10-09T02:18:07.985Z,0
2017-10-09T02:19:18.351Z,0
2017-10-09T02:20:28.693Z,0
2017-10-09T02:21:38.720Z,0
2017-10-09T02:22:49.085Z,0
2017-10-09T02:23:59.413Z,0
2017-10-09T02:25:09.735Z,0
2017-10-09T02:26:20.074Z,0
2017-10-09T02:27:30.409Z,0
2017-10-09T02:28:40.755Z,0
2017-10-09T02:29:51.094Z,0
2017-10-09T02:31:02.140Z,0
2017-10-09T02:32:12.481Z,0
2017-10-09T02:33:22.808Z,0
2017-10-09T02:34:33.139Z,0
2017-10-09T02:35:43.503Z,0
2017-10-09T02:36:53.843Z,0
2017-10-09T02:38:03.861Z,0
2017-10-09T02:39:14.196Z,0
2017-10-09T02:40:24.533Z,0
2017-10-09T02:41:34.865Z,0
2017-10-09T02:42:45.205Z,0
2017-10-09T02:43:55.538Z,0
2017-10-09T02:45:05.237Z,0
2017-10-09T02:46:15.263Z,0
2017-10-09T02:47:25.322Z,0
2017-10-09T02:48:35.339Z,0
2017-10-09T02:49:46.063Z,0
2017-10-09T02:50:56.395Z,0
2017-10-09T02:52:06.725Z,0
2017-10-09T02:53:17.073Z,0
2017-10-09T02:54:27.417Z,0
2017-10-09T02:55:37.129Z,0
2017-10-09T02:56:47.473Z,0
2017-10-09T02:57:57.495Z,0
2017-10-09T02:59:07.517Z,0
2017-10-09T03:00:17.535Z,0
2017-10-09T03:01:27.561Z,0
2017-10-09T03:33:31.707Z,0
2017-10-09T03:34:42.021Z,0
2017-10-09T03:35:52.341Z,0
2017-10-09T03:37:02.355Z,0
2017-10-09T03:38:12.684Z,0
2017-10-09T03:39:22.402Z,0
2017-10-09T03:40:32.731Z,0
2017-10-09T03:41:42.760Z,0
2017-10-09T03:42:53.081Z,0
2017-10-09T03:44:03.414Z,0
2017-10-09T03:45:13.747Z,0
2017-10-09T03:46:24.097Z,0
2017-10-09T03:47:34.109Z,0
2017-10-09T03:48:44.432Z,0
2017-10-09T03:49:54.459Z,0
2017-10-09T03:51:04.146Z,0
2017-10-09T03:52:14.471Z,0
2017-10-09T03:53:24.795Z,0
2017-10-09T03:54:35.133Z,0
2017-10-09T03:55:45.463Z,0
2017-10-09T03:56:55.476Z,0
2017-10-09T03:58:05.811Z,0
2017-10-09T03:59:16.172Z,0
2017-10-09T04:00:26.514Z,0
2017-10-09T04:01:36.850Z,0
2017-10-09T04:02:47.196Z,0
2017-10-09T04:03:57.534Z,0
2017-10-09T04:05:07.235Z,0
2017-10-09T04:06:17.564Z,0
2017-10-09T04:07:27.897Z,0
2017-10-09T04:08:38.318Z,0
2017-10-09T04:09:48.344Z,0
2017-10-09T04:10:58.665Z,0
2017-10-09T04:12:08.676Z,0
2017-10-09T04:13:18.693Z,0
2017-10-09T04:14:29.069Z,0
2017-10-09T04:15:39.399Z,0
2017-10-09T04:16:49.724Z,0
2017-10-09T04:18:00.063Z,0
2017-10-09T04:19:10.395Z,0
2017-10-09T04:20:20.722Z,0
2017-10-09T04:21:30.754Z,0
2017-10-09T04:22:40.767Z,0
2017-10-09T04:23:51.110Z,0
2017-10-09T04:25:01.131Z,0
2017-10-09T04:26:10.836Z,0
2017-10-09T04:27:20.887Z,0
2017-10-09T04:28:31.237Z,0
2017-10-09T04:29:41.570Z,0
2017-10-09T04:30:51.572Z,0
2017-10-09T04:32:01.645Z,0
2017-10-09T04:33:11.987Z,0
2017-10-09T04:34:22.356Z,0
2017-10-09T04:35:32.684Z,0
2017-10-09T04:36:43.018Z,0
2017-10-09T04:37:53.094Z,0
2017-10-09T04:39:03.433Z,0
2017-10-09T04:40:13.755Z,0
2017-10-09T04:41:23.766Z,0
2017-10-09T04:42:34.106Z,0
2017-10-09T04:43:44.498Z,0
2017-10-09T04:44:54.510Z,0
2017-10-09T04:46:04.837Z,0
2017-10-09T04:47:15.170Z,0
2017-10-09T04:48:25.181Z,0
2017-10-09T04:49:35.212Z,0
2017-10-09T04:50:46.273Z,0
2017-10-09T04:51:56.595Z,0
2017-10-09T04:53:06.914Z,0
2017-10-09T04:54:17.233Z,0
2017-10-09T04:55:27.608Z,0
2017-10-09T04:56:37.952Z,0
2017-10-09T04:57:47.964Z,0
2017-10-09T04:58:57.981Z,0
2017-10-09T05:00:07.691Z,0
2017-10-09T05:01:17.707Z,0
2017-10-09T05:02:28.021Z,0
2017-10-09T05:03:38.354Z,5
2017-10-09T05:04:48.576Z,5
2017-10-09T05:05:58.587Z,5
2017-10-09T05:07:08.995Z,5
2017-10-09T05:08:19.330Z,5
2017-10-09T05:09:29.656Z,5
2017-10-09T05:10:40.000Z,10
2017-10-09T05:11:50.034Z,10
2017-10-09T05:13:00.428Z,10
2017-10-09T05:14:10.755Z,10
2017-10-09T05:15:21.089Z,10
2017-10-09T05:16:31.430Z,10
2017-10-09T05:17:41.759Z,15
2017-10-09T05:18:52.151Z,15
2017-10-09T05:20:02.502Z,15
2017-10-09T05:21:12.821Z,15
2017-10-09T05:22:23.159Z,15
2017-10-09T05:23:33.484Z,20
2017-10-09T05:24:43.843Z,20
2017-10-09T05:25:54.172Z,20
2017-10-09T05:27:04.496Z,20
2017-10-09T05:28:14.835Z,25
2017-10-09T05:29:25.158Z,25
2017-10-09T05:30:35.511Z,25
2017-10-09T05:31:45.854Z,25
2017-10-09T05:32:56.177Z,30
2017-10-09T05:34:06.510Z,30
2017-10-09T05:35:16.848Z,30
2017-10-09T05:36:27.173Z,35
2017-10-09T05:37:37.506Z,35
2017-10-09T05:38:47.505Z,35
2017-10-09T05:39:57.849Z,35
2017-10-09T05:41:07.881Z,40
2017-10-09T05:42:18.213Z,40
2017-10-09T05:43:28.549Z,40
2017-10-09T05:44:38.874Z,40
2017-10-09T05:45:48.904Z,40
2017-10-09T05:46:59.224Z,45
2017-10-09T05:48:09.558Z,45
2017-10-09T05:49:19.882Z,45
2017-10-09T05:50:29.904Z,45
2017-10-09T05:51:40.224Z,45
2017-10-09T05:52:50.559Z,45
2017-10-09T05:54:00.580Z,50
2017-10-09T05:55:10.923Z,50
2017-10-09T05:56:20.927Z,50
2017-10-09T05:57:31.249Z,50
2017-10-09T05:58:41.592Z,50
2017-10-09T05:59:51.352Z,55
2017-10-09T06:01:01.681Z,55
2017-10-09T06:02:12.017Z,55
2017-10-09T06:03:22.339Z,55
2017-10-09T06:04:32.676Z,55
2017-10-09T06:05:42.691Z,55
2017-10-09T06:06:53.033Z,60
2017-10-09T06:08:03.350Z,60
2017-10-09T06:09:13.691Z,60
2017-10-09T06:10:24.039Z,60
2017-10-09T06:11:34.411Z,60
2017-10-09T06:12:44.429Z,65
2017-10-09T06:13:54.444Z,65
2017-10-09T06:15:04.778Z,65
2017-10-09T06:16:15.397Z,65
2017-10-09T06:17:25.767Z,60
2017-10-09T06:18:35.478Z,65
2017-10-09T06:19:45.805Z,65
2017-10-09T06:20:56.126Z,65
2017-10-09T06:22:06.142Z,65
2017-10-09T06:23:16.158Z,70
2017-10-09T06:24:26.504Z,70
2017-10-09T06:25:36.833Z,70
2017-10-09T06:26:47.196Z,70
2017-10-09T06:27:57.551Z,75
2017-10-09T06:29:07.002Z,75
2017-10-09T06:30:17.330Z,75
2017-10-09T06:31:27.679Z,75
2017-10-09T06:32:37.702Z,80
2017-10-09T06:33:47.729Z,80
2017-10-09T06:34:58.113Z,80
2017-10-09T06:36:08.458Z,80
2017-10-09T06:37:18.806Z,80
2017-10-09T06:38:29.159Z,85
2017-10-09T06:39:39.190Z,85
2017-10-09T06:40:49.242Z,85
2017-10-09T06:41:59.259Z,85
2017-10-09T06:43:09.602Z,85
2017-10-09T06:44:19.926Z,90
2017-10-09T06:45:30.246Z,90
2017-10-09T06:46:40.575Z,90
2017-10-09T06:47:50.909Z,90
2017-10-09T06:49:00.912Z,90
2017-10-09T06:50:11.260Z,95
2017-10-09T06:51:21.270Z,95
2017-10-09T06:52:31.618Z,95
2017-10-09T06:53:41.956Z,95
2017-10-09T06:54:52.293Z,95
2017-10-09T06:56:02.624Z,100
2017-10-09T06:57:12.960Z,100
2017-10-09T06:58:23.345Z,100
2017-10-09T06:59:33.683Z,105
2017-10-09T07:00:43.701Z,105
2017-10-09T07:01:54.043Z,105
2017-10-09T07:03:04.065Z,105
2017-10-09T07:04:14.126Z,105
2017-10-09T07:05:24.464Z,110
2017-10-09T07:06:34.490Z,110
2017-10-09T07:07:44.814Z,110
2017-10-09T07:08:55.162Z,110
2017-10-09T07:10:05.496Z,110
2017-10-09T07:11:15.816Z,110
2017-10-09T07:12:25.521Z,110
2017-10-09T07:13:35.860Z,110
2017-10-09T07:14:46.211Z,110
2017-10-09T07:15:56.223Z,110
2017-10-09T07:17:06.557Z,110
2017-10-09T07:18:16.901Z,110
2017-10-09T07:19:27.240Z,115
2017-10-09T07:20:37.251Z,115
2017-10-09T07:21:47.594Z,115
2017-10-09T07:22:57.293Z,115
2017-10-09T07:24:06.980Z,115
2017-10-09T07:25:17.321Z,120
2017-10-09T07:26:27.661Z,120
2017-10-09T07:27:37.690Z,120
2017-10-09T07:28:48.032Z,120
2017-10-09T07:29:58.370Z,125
2017-10-09T07:31:08.728Z,125
2017-10-09T07:32:18.734Z,125
2017-10-09T07:33:29.068Z,125
2017-10-09T07:34:39.082Z,125
2017-10-09T07:35:49.413Z,130
2017-10-09T07:36:59.765Z,130
2017-10-09T07:38:10.107Z,130
2017-10-09T07:39:20.434Z,130
2017-10-09T07:40:30.757Z,130
2017-10-09T07:41:40.781Z,135
2017-10-09T07:42:51.119Z,135
2017-10-09T07:44:01.462Z,135
2017-10-09T07:45:11.498Z,135
2017-10-09T07:46:21.501Z,135
2017-10-09T07:47:32.071Z,135
2017-10-09T07:48:42.389Z,140
2017-10-09T07:49:52.738Z,135
2017-10-09T07:51:03.077Z,140
2017-10-09T07:52:13.423Z,140
2017-10-09T07:53:23.831Z,145
2017-10-09T07:54:34.152Z,145
2017-10-09T07:55:44.178Z,145
2017-10-09T07:56:54.514Z,145
2017-10-09T07:58:04.856Z,150
2017-10-09T07:59:15.238Z,155
2017-10-09T08:00:25.595Z,150
2017-10-09T08:01:35.923Z,145
2017-10-09T08:02:45.954Z,95
2017-10-09T08:03:56.319Z,95
2017-10-09T08:05:06.642Z,120
2017-10-09T08:06:16.989Z,130
2017-10-09T08:07:27.345Z,110
2017-10-09T08:08:37.383Z,140
2017-10-09T08:09:47.721Z,175
2017-10-09T08:10:57.473Z,175
2017-10-09T08:12:07.807Z,175
2017-10-09T08:13:17.824Z,175
2017-10-09T08:14:28.191Z,175
2017-10-09T08:15:38.538Z,175
2017-10-09T08:16:48.946Z,175
2017-10-09T08:17:59.289Z,180
2017-10-09T08:19:09.624Z,185
2017-10-09T08:20:19.956Z,180
2017-10-09T08:21:30.316Z,180
2017-10-09T08:22:40.709Z,180
2017-10-09T08:23:50.421Z,180
2017-10-09T08:25:00.752Z,175
2017-10-09T08:26:11.090Z,175
2017-10-09T08:27:21.459Z,180
2017-10-09T08:28:31.857Z,175
2017-10-09T08:29:42.197Z,175
2017-10-09T08:30:52.221Z,180
2017-10-09T08:32:02.554Z,180
2017-10-09T08:33:12.574Z,185
2017-10-09T08:34:22.934Z,180
2017-10-09T08:35:33.261Z,175
2017-10-09T08:36:43.592Z,175
2017-10-09T08:37:53.922Z,170
2017-10-09T08:39:03.948Z,175
2017-10-09T08:40:14.355Z,175
2017-10-09T08:41:25.354Z,175
2017-10-09T08:42:36.186Z,175
2017-10-09T08:43:46.526Z,175
2017-10-09T08:44:56.552Z,175
2017-10-09T08:46:06.933Z,175
2017-10-09T08:47:17.270Z,180
2017-10-09T08:48:27.600Z,180
2017-10-09T08:49:37.931Z,180
2017-10-09T08:50:48.271Z,185
2017-10-09T08:51:58.350Z,185
2017-10-09T08:53:08.708Z,140
2017-10-09T08:54:19.048Z,175
2017-10-09T08:55:29.398Z,175
2017-10-09T08:56:39.735Z,190
2017-10-09T08:57:50.122Z,120
2017-10-09T08:59:00.145Z,155
2017-10-09T09:00:10.477Z,190
2017-10-09T09:01:20.819Z,190
2017-10-09T09:02:30.839Z,125
2017-10-09T09:03:41.216Z,190
2017-10-09T09:04:51.242Z,190
2017-10-09T09:06:01.583Z,190
2017-10-09T09:07:11.586Z,190
2017-10-09T09:08:21.942Z,185
2017-10-09T09:09:32.332Z,195
2017-10-09T09:10:42.344Z,195
2017-10-09T09:11:52.676Z,195
2017-10-09T09:13:03.010Z,195
2017-10-09T09:14:13.351Z,195
2017-10-09T09:15:23.843Z,195
2017-10-09T09:16:33.549Z,195
2017-10-09T09:17:43.873Z,195
2017-10-09T09:18:54.218Z,195
2017-10-09T09:20:04.255Z,195
2017-10-09T09:21:14.647Z,195
2017-10-09T09:22:24.993Z,195
2017-10-09T09:23:35.328Z,195
2017-10-09T09:24:45.777Z,195
2017-10-09T09:25:56.115Z,200
2017-10-09T09:27:06.507Z,200
2017-10-09T09:28:16.527Z,200
2017-10-09T09:29:26.856Z,200
2017-10-09T09:30:37.203Z,205
2017-10-09T09:31:47.219Z,205
2017-10-09T09:32:57.296Z,205
2017-10-09T09:34:07.649Z,205
2017-10-09T09:35:17.984Z,205
2017-10-09T09:36:28.320Z,205
2017-10-09T09:37:38.661Z,210
2017-10-09T09:38:49.058Z,100
2017-10-09T09:39:59.109Z,215
2017-10-09T09:41:08.821Z,175
2017-10-09T09:42:19.162Z,220
2017-10-09T09:43:28.859Z,230
2017-10-09T09:44:39.277Z,225
2017-10-09T09:45:49.620Z,230
2017-10-09T09:47:00.033Z,230
2017-10-09T09:48:10.377Z,230
2017-10-09T09:49:20.726Z,230
2017-10-09T09:50:30.813Z,230
2017-10-09T09:51:41.214Z,235
2017-10-09T09:52:51.242Z,235
2017-10-09T09:54:01.612Z,230
2017-10-09T09:55:11.949Z,230
2017-10-09T09:56:22.346Z,110
2017-10-09T09:57:33.142Z,110
2017-10-09T09:58:43.491Z,225
2017-10-09T09:59:54.089Z,225
2017-10-09T10:01:04.429Z,230
2017-10-09T10:02:14.439Z,220
2017-10-09T10:03:24.470Z,125
2017-10-09T10:04:34.186Z,125
2017-10-09T10:05:44.561Z,210
2017-10-09T10:06:54.586Z,135
2017-10-09T10:08:04.340Z,125
2017-10-09T10:09:14.389Z,125
2017-10-09T10:10:24.401Z,130
2017-10-09T10:11:34.744Z,250
2017-10-09T10:12:44.447Z,250
2017-10-09T10:13:54.527Z,255
2017-10-09T10:15:04.568Z,255
2017-10-09T10:16:14.905Z,260
2017-10-09T10:17:24.621Z,250
2017-10-09T10:18:34.959Z,245
2017-10-09T10:19:45.365Z,245
2017-10-09T10:20:55.394Z,255
2017-10-09T10:22:05.736Z,260
2017-10-09T10:23:16.079Z,265
2017-10-09T10:24:25.787Z,255
2017-10-09T10:25:36.136Z,250
2017-10-09T10:26:46.474Z,260
2017-10-09T10:27:56.517Z,275
2017-10-09T10:29:06.539Z,235
2017-10-09T10:30:16.883Z,275
2017-10-09T10:31:26.943Z,270
2017-10-09T10:32:36.971Z,275
2017-10-09T10:33:47.305Z,275
2017-10-09T10:34:57.320Z,270
2017-10-09T10:36:07.653Z,185
2017-10-09T10:37:18.145Z,270
2017-10-09T10:38:28.491Z,265
2017-10-09T10:39:38.822Z,270
2017-10-09T10:40:48.528Z,275
2017-10-09T10:41:58.890Z,275
2017-10-09T10:43:09.276Z,275
2017-10-09T10:44:19.624Z,275
2017-10-09T10:45:29.636Z,275
2017-10-09T10:46:39.973Z,270
2017-10-09T10:47:50.316Z,270
2017-10-09T10:49:00.655Z,265
2017-10-09T10:50:10.987Z,265
2017-10-09T10:51:21.313Z,270
2017-10-09T10:52:31.659Z,260
2017-10-09T10:53:41.688Z,260
2017-10-09T10:54:52.077Z,255
2017-10-09T10:56:02.419Z,250
2017-10-09T10:57:12.760Z,245
2017-10-09T10:58:23.104Z,125
2017-10-09T10:59:33.444Z,245
2017-10-09T11:00:43.831Z,265
2017-10-09T11:01:54.184Z,270
2017-10-09T11:03:04.209Z,275
2017-10-09T11:04:14.563Z,270
2017-10-09T11:05:24.893Z,270
2017-10-09T11:06:35.274Z,270
2017-10-09T11:07:45.293Z,260
2017-10-09T11:08:55.659Z,255
2017-10-09T11:10:06.013Z,255
2017-10-09T11:11:16.354Z,250
2017-10-09T11:12:26.767Z,135
2017-10-09T11:13:37.105Z,260
2017-10-09T11:14:47.468Z,255
2017-10-09T11:15:57.829Z,255
2017-10-09T11:17:08.166Z,255
2017-10-09T11:18:18.258Z,270
2017-10-09T11:19:28.274Z,275
2017-10-09T11:20:38.622Z,285
2017-10-09T11:21:49.189Z,285
2017-10-09T11:22:59.520Z,285
2017-10-09T11:24:09.867Z,285
2017-10-09T11:25:20.211Z,280
2017-10-09T11:26:30.553Z,265
2017-10-09T11:27:40.906Z,185
2017-10-09T11:28:51.263Z,150
2017-10-09T11:30:01.657Z,145
2017-10-09T11:31:12.013Z,150
2017-10-09T11:32:22.356Z,135
2017-10-09T11:33:32.377Z,235
2017-10-09T11:34:42.108Z,145
2017-10-09T11:35:52.170Z,125
2017-10-09T11:37:02.531Z,120
2017-10-09T11:38:12.896Z,120
2017-10-09T11:39:23.240Z,135
2017-10-09T11:40:32.948Z,215
2017-10-09T11:41:42.644Z,140
2017-10-09T11:42:52.998Z,135
2017-10-09T11:44:03.353Z,145
2017-10-09T11:45:13.078Z,160
2017-10-09T11:46:23.122Z,170
2017-10-09T11:47:33.453Z,175
2017-10-09T11:48:43.799Z,215
2017-10-09T11:49:54.155Z,175
2017-10-09T11:51:04.488Z,175
2017-10-09T11:52:14.512Z,280
2017-10-09T11:53:24.910Z,245
2017-10-09T11:54:34.948Z,145
2017-10-09T11:55:45.294Z,120
2017-10-09T11:56:55.641Z,120
2017-10-09T11:58:05.969Z,150
2017-10-09T11:59:16.342Z,175
2017-10-09T12:00:26.682Z,210
2017-10-09T12:01:36.713Z,130
2017-10-09T12:02:47.042Z,125
2017-10-09T12:03:57.383Z,130
2017-10-09T12:05:07.463Z,125
2017-10-09T12:06:17.812Z,130
2017-10-09T12:07:28.168Z,130
2017-10-09T12:08:38.506Z,135
2017-10-09T12:09:48.225Z,140
2017-10-09T12:10:58.615Z,145
2017-10-09T12:12:08.640Z,160
2017-10-09T12:13:18.351Z,140
2017-10-09T12:14:28.703Z,135
2017-10-09T12:15:39.046Z,130
2017-10-09T12:16:49.396Z,235
2017-10-09T12:17:59.742Z,245
2017-10-09T12:19:09.760Z,245
2017-10-09T12:20:19.785Z,240
2017-10-09T12:21:30.128Z,235
2017-10-09T12:22:39.576Z,235
2017-10-09T12:23:49.291Z,185
2017-10-09T12:24:59.323Z,235
2017-10-09T12:26:09.349Z,235
2017-10-09T12:27:19.381Z,235
2017-10-09T12:28:29.734Z,240
2017-10-09T12:29:40.063Z,240
2017-10-09T12:30:50.405Z,250
2017-10-09T12:32:00.744Z,245
2017-10-09T12:33:11.097Z,235
2017-10-09T12:34:20.805Z,235
2017-10-09T12:35:31.166Z,235
2017-10-09T12:36:41.513Z,225
2017-10-09T12:37:51.543Z,230
2017-10-09T12:39:01.576Z,235
2017-10-09T12:40:11.919Z,235
2017-10-09T12:41:22.258Z,245
2017-10-09T12:42:32.606Z,240
2017-10-09T12:43:42.963Z,240
2017-10-09T12:44:52.976Z,230
2017-10-09T12:46:03.051Z,230
2017-10-09T12:47:13.439Z,230
2017-10-09T12:48:23.454Z,230
2017-10-09T12:49:33.480Z,230
2017-10-09T12:50:43.807Z,235
2017-10-09T12:51:54.190Z,230
2017-10-09T12:53:04.521Z,235
2017-10-09T12:54:14.869Z,230
2017-10-09T12:55:24.911Z,230
2017-10-09T12:56:34.930Z,225
2017-10-09T12:57:45.359Z,220
2017-10-09T12:58:55.702Z,220
2017-10-09T13:00:05.423Z,215
2017-10-09T13:01:15.765Z,215
2017-10-09T13:02:25.804Z,225
2017-10-09T13:03:36.150Z,220
2017-10-09T13:04:46.175Z,220
2017-10-09T13:05:56.749Z,215
2017-10-09T13:07:07.092Z,215
2017-10-09T13:08:17.424Z,210
2017-10-09T13:09:27.201Z,210
2017-10-09T13:10:37.548Z,200
2017-10-09T13:11:47.890Z,190
2017-10-09T13:12:58.240Z,190
2017-10-09T13:14:08.578Z,185
2017-10-09T13:15:18.021Z,190
2017-10-09T13:16:28.347Z,190
2017-10-09T13:17:38.375Z,190
2017-10-09T13:18:48.732Z,190
2017-10-09T13:19:58.436Z,185
2017-10-09T13:21:08.454Z,190
2017-10-09T13:22:18.796Z,185
2017-10-09T13:23:29.137Z,185
2017-10-09T13:24:39.477Z,180
2017-10-09T13:25:49.805Z,185
2017-10-09T13:26:59.827Z,100
2017-10-09T13:28:09.869Z,140
2017-10-09T13:29:19.907Z,175
2017-10-09T13:30:30.258Z,105
2017-10-09T13:31:40.590Z,95
2017-10-09T13:32:50.680Z,95
2017-10-09T13:34:00.722Z,90
2017-10-09T13:35:10.760Z,95
2017-10-09T13:36:21.109Z,100
2017-10-09T13:37:31.456Z,110
2017-10-09T13:38:41.800Z,110
2017-10-09T13:39:52.145Z,110
2017-10-09T13:41:02.462Z,105
2017-10-09T13:42:12.831Z,105
2017-10-09T13:43:23.187Z,100
2017-10-09T13:44:33.585Z,95
2017-10-09T13:45:43.920Z,100
2017-10-09T13:46:53.954Z,130
2017-10-09T13:48:04.294Z,160
2017-10-09T13:49:14.326Z,160
2017-10-09T13:50:24.077Z,160
2017-10-09T13:51:34.438Z,155
2017-10-09T13:52:44.781Z,145
2017-10-09T13:53:55.132Z,160
2017-10-09T13:55:05.474Z,105
2017-10-09T13:56:15.875Z,95
2017-10-09T13:57:26.210Z,95
2017-10-09T13:58:36.556Z,95
2017-10-09T13:59:46.892Z,95
2017-10-09T14:00:57.225Z,100
2017-10-09T14:02:07.589Z,100
2017-10-09T14:03:17.938Z,125
2017-10-09T14:04:28.284Z,130
2017-10-09T14:05:37.994Z,125
2017-10-09T14:06:48.346Z,135
2017-10-09T14:07:58.691Z,135
2017-10-09T14:09:09.040Z,120
2017-10-09T14:10:19.069Z,90
2017-10-09T14:11:29.103Z,130
2017-10-09T14:12:39.138Z,125
2017-10-09T14:13:49.537Z,120
2017-10-09T14:14:59.906Z,100
2017-10-09T14:16:10.254Z,100
2017-10-09T14:17:20.609Z,90
2017-10-09T14:18:30.962Z,95
2017-10-09T14:19:41.028Z,75
2017-10-09T14:20:51.388Z,70
2017-10-09T14:22:01.744Z,90
2017-10-09T14:23:11.767Z,75
2017-10-09T14:24:21.791Z,70
2017-10-09T14:25:31.828Z,80
2017-10-09T14:26:41.853Z,80
2017-10-09T14:27:51.889Z,75
2017-10-09T14:29:02.225Z,70
2017-10-09T14:30:12.269Z,70
2017-10-09T14:40:42.481Z,65
2017-10-09T14:41:52.887Z,65
2017-10-09T14:43:03.040Z,65
2017-10-09T14:44:13.144Z,65
2017-10-09T14:45:23.538Z,65
2017-10-09T14:46:33.956Z,65
2017-10-09T14:47:44.381Z,65
2017-10-09T14:48:54.528Z,60
2017-10-09T14:50:04.612Z,60
2017-10-09T14:51:15.677Z,60
2017-10-09T14:52:26.245Z,60
2017-10-09T14:53:36.326Z,60
2017-10-09T14:54:46.792Z,60
2017-10-09T14:55:57.219Z,60
2017-10-09T14:57:07.629Z,60
2017-10-09T14:58:17.717Z,55
2017-10-09T14:59:28.112Z,55
2017-10-09T15:00:38.562Z,55
2017-10-09T15:01:48.955Z,55
2017-10-09T15:02:59.364Z,55
2017-10-09T15:04:09.109Z,55
2017-10-09T15:05:19.517Z,55
2017-10-09T15:06:29.984Z,55
2017-10-09T15:07:40.071Z,55
2017-10-09T15:08:50.148Z,55
2017-10-09T15:10:00.553Z,55
2017-10-09T15:11:10.943Z,55
2017-10-09T15:12:21.019Z,55
2017-10-09T15:13:31.434Z,55
2017-10-09T15:14:41.877Z,55
2017-10-09T15:15:51.614Z,55
2017-10-09T15:17:01.690Z,55
2017-10-09T15:18:12.105Z,50
2017-10-09T15:19:22.523Z,50
2017-10-09T15:20:32.592Z,50
2017-10-09T15:21:43.008Z,50
2017-10-09T15:22:53.081Z,50
2017-10-09T15:24:03.480Z,50
2017-10-09T15:25:13.578Z,45
2017-10-09T15:26:23.979Z,45
2017-10-09T15:27:34.051Z,45
2017-10-09T15:28:44.129Z,40
2017-10-09T15:29:54.602Z,40
2017-10-09T15:31:04.670Z,40
2017-10-09T15:32:14.751Z,40
2017-10-09T15:33:25.154Z,40
2017-10-09T15:34:35.224Z,35
2017-10-09T15:35:45.625Z,35
2017-10-09T15:36:55.377Z,35
2017-10-09T15:38:05.467Z,30
2017-10-09T15:39:15.869Z,30
2017-10-09T15:40:25.615Z,25
2017-10-09T15:41:36.076Z,25
2017-10-09T15:42:46.479Z,20
2017-10-09T15:43:56.920Z,20
2017-10-09T15:45:07.229Z,20
2017-10-09T15:46:17.298Z,15
2017-10-09T15:47:27.033Z,15
2017-10-09T15:48:37.143Z,15
2017-10-09T15:49:47.227Z,15
2017-10-09T15:50:57.647Z,15
2017-10-09T15:52:08.046Z,10
2017-10-09T15:53:18.187Z,10
2017-10-09T15:54:28.757Z,10
2017-10-09T15:55:39.919Z,10
2017-10-09T15:56:50.429Z,10
2017-10-09T15:58:00.856Z,10
2017-10-09T15:59:11.138Z,5
2017-10-09T16:00:21.539Z,5
2017-10-09T16:01:31.293Z,5
2017-10-09T16:02:41.681Z,5
2017-10-09T16:03:52.120Z,5
2017-10-09T16:05:02.609Z,5
2017-10-09T16:06:13.059Z,5
2017-10-09T16:07:23.460Z,5
2017-10-09T16:08:33.888Z,0
2017-10-09T16:09:43.948Z,0
2017-10-09T16:10:54.348Z,0
2017-10-09T16:12:04.764Z,0
2017-10-09T16:13:15.183Z,0
2017-10-09T16:14:25.268Z,0
2017-10-09T16:15:35.690Z,0
2017-10-09T16:16:46.130Z,0
2017-10-09T16:17:56.528Z,0
2017-10-09T16:19:06.946Z,0
2017-10-09T16:20:17.044Z,0
2017-10-09T16:21:27.449Z,0
2017-10-09T16:22:37.856Z,0
2017-10-09T16:23:48.271Z,0
2017-10-09T16:24:58.664Z,0
2017-10-09T16:26:09.074Z,0
2017-10-09T16:27:19.136Z,0
2017-10-09T16:28:29.553Z,0
2017-10-09T16:29:39.645Z,0
2017-10-09T16:30:49.709Z,0
2017-10-09T16:31:59.782Z,0
2017-10-09T16:33:10.188Z,0
2017-10-09T16:34:20.301Z,0
2017-10-09T16:35:30.712Z,0
2017-10-09T16:36:41.113Z,0
2017-10-09T16:37:50.863Z,0
2017-10-09T16:39:01.274Z,0
2017-10-09T16:40:11.752Z,0
2017-10-09T16:41:22.162Z,0
2017-10-09T16:42:32.570Z,0
2017-10-09T16:43:42.995Z,0
2017-10-09T16:44:53.797Z,0
2017-10-09T16:46:06.508Z,0
2017-10-09T16:47:19.206Z,0
2017-10-09T16:48:30.163Z,0
2017-10-09T16:49:41.256Z,0
2017-10-09T16:50:52.409Z,0
2017-10-09T16:52:02.290Z,0
2017-10-09T16:53:13.020Z,0
2017-10-09T16:54:23.237Z,0
2017-10-09T16:55:35.043Z,0
2017-10-09T16:56:47.125Z,0
2017-10-09T16:57:58.755Z,0
2017-10-09T16:59:08.613Z,0
2017-10-09T17:00:19.980Z,0
2017-10-09T17:01:30.833Z,0
2017-10-09T17:02:42.189Z,0
2017-10-09T17:03:56.152Z,0
2017-10-09T17:05:07.692Z,0
2017-10-09T17:06:18.608Z,0
2017-10-09T17:07:32.333Z,0
2017-10-09T17:08:42.900Z,0
2017-10-09T17:09:55.063Z,0
2017-10-09T17:11:06.606Z,0
2017-10-09T17:12:17.561Z,0
2017-10-09T17:13:29.197Z,0
2017-10-09T17:14:39.807Z,0
2017-10-09T17:15:50.600Z,0
2017-10-09T17:17:01.736Z,0
2017-10-09T17:18:12.360Z,0
2017-10-09T17:19:23.404Z,0